createdAt,value
2023-04-26T00:00:11.842Z,2.08
2023-04-26T00:05:14.256Z,2.28
2023-04-26T00:10:16.037Z,1.98
2023-04-26T00:15:17.604Z,2.28
2023-04-26T00:20:19.368Z,2.20
2023-04-26T00:25:21.019Z,2.17
2023-04-26T00:30:22.763Z,2.10
2023-04-26T00:35:24.572Z,2.55
2023-04-26T00:40:26.184Z,1.98
2023-04-26T00:45:27.872Z,2.67
2023-04-26T00:50:30.260Z,2.03
2023-04-26T00:55:31.927Z,2.15
2023-04-26T01:00:34.097Z,2.72
2023-04-26T01:05:36.742Z,2.47
2023-04-26T01:10:39.266Z,2.10
2023-04-26T01:15:47.738Z,2.20
2023-04-26T01:20:49.450Z,2.50
2023-04-26T01:25:51.280Z,2.80
2023-04-26T01:30:53.026Z,2.47
2023-04-26T01:35:54.701Z,2.08
2023-04-26T01:40:57.455Z,2.08
2023-04-26T01:45:59.212Z,2.53
2023-04-26T01:51:04.605Z,2.50
2023-04-26T01:56:08.258Z,2.05
2023-04-26T02:01:10.131Z,2.47
2023-04-26T02:06:12.113Z,2.78
2023-04-26T02:11:13.792Z,2.25
2023-04-26T02:16:16.880Z,2.65
2023-04-26T02:21:21.501Z,2.50
2023-04-26T02:26:23.128Z,2.53
2023-04-26T02:31:24.857Z,2.70
2023-04-26T02:36:27.294Z,2.53
2023-04-26T02:41:32.832Z,2.65
2023-04-26T02:46:34.531Z,2.40
2023-04-26T02:51:36.353Z,2.38
2023-04-26T02:56:38.211Z,2.80
2023-04-26T03:01:39.908Z,2.47
2023-04-26T03:06:41.635Z,2.40
2023-04-26T03:11:43.177Z,2.55
2023-04-26T03:16:44.962Z,2.40
2023-04-26T03:21:46.710Z,2.42
2023-04-26T03:26:48.384Z,2.67
2023-04-26T03:31:50.410Z,3.00
2023-04-26T03:36:52.085Z,2.47
2023-04-26T03:41:54.112Z,2.75
2023-04-26T03:46:56.094Z,2.63
2023-04-26T03:51:57.936Z,2.50
2023-04-26T03:56:59.506Z,2.47
2023-04-26T04:02:01.232Z,2.10
2023-04-26T04:07:03.126Z,2.38
2023-04-26T04:12:04.890Z,2.70
2023-04-26T04:17:08.529Z,2.38
2023-04-26T04:22:10.346Z,2.60
2023-04-26T04:27:14.984Z,2.22
2023-04-26T04:32:17.559Z,2.30
2023-04-26T04:37:19.756Z,2.55
2023-04-26T04:42:22.323Z,2.67
2023-04-26T04:47:25.754Z,2.50
2023-04-26T04:52:28.034Z,2.33
2023-04-26T04:57:30.217Z,2.30
2023-04-26T05:02:33.270Z,2.20
2023-04-26T05:07:35.069Z,2.38
2023-04-26T05:12:37.118Z,2.60
2023-04-26T05:17:39.008Z,2.42
2023-04-26T05:22:55.887Z,2.60
2023-04-26T05:27:57.531Z,2.50
2023-04-26T05:33:10.267Z,2.30
2023-04-26T05:38:21.943Z,3.00
2023-04-26T05:43:23.517Z,2.30
2023-04-26T05:48:25.305Z,2.60
2023-04-26T05:53:26.989Z,3.05
2023-04-26T05:58:28.796Z,2.55
2023-04-26T06:03:31.012Z,2.88
2023-04-26T06:08:33.485Z,2.50
2023-04-26T06:13:35.313Z,2.20
2023-04-26T06:18:37.311Z,2.40
2023-04-26T06:23:38.975Z,2.38
2023-04-26T06:28:42.212Z,2.78
2023-04-26T06:33:44.386Z,2.33
2023-04-26T06:38:47.678Z,2.55
2023-04-26T06:43:49.429Z,2.45
2023-04-26T06:48:56.177Z,2.20
2023-04-26T06:54:00.937Z,2.50
2023-04-26T06:59:04.881Z,2.50
2023-04-26T07:04:13.779Z,2.20
2023-04-26T07:09:15.440Z,2.28
2023-04-26T07:14:18.951Z,2.60
2023-04-26T07:19:20.572Z,2.50
2023-04-26T07:24:22.110Z,2.53
2023-04-26T07:29:23.814Z,2.20
2023-04-26T07:34:26.671Z,2.35
2023-04-26T07:39:28.292Z,2.53
2023-04-26T07:44:29.962Z,2.17
2023-04-26T07:49:31.648Z,2.30
2023-04-26T07:54:33.288Z,1.83
2023-04-26T07:59:34.978Z,1.98
2023-04-26T08:04:36.787Z,2.13
2023-04-26T08:09:38.462Z,2.22
2023-04-26T08:14:40.359Z,1.95
2023-04-26T08:19:42.068Z,2.55
2023-04-26T08:24:48.132Z,2.10
2023-04-26T08:29:49.752Z,2.10
2023-04-26T08:34:51.321Z,1.90
2023-04-26T08:39:52.880Z,2.05
2023-04-26T08:44:54.750Z,2.35
2023-04-26T08:50:02.732Z,2.25
2023-04-26T08:55:05.447Z,2.10
2023-04-26T09:00:13.465Z,2.17
2023-04-26T09:05:15.358Z,1.80
2023-04-26T09:10:21.632Z,1.88
2023-04-26T09:15:24.600Z,2.10
2023-04-26T09:20:28.663Z,2.95
2023-04-26T09:25:31.351Z,2.45
2023-04-26T09:30:39.796Z,2.35
2023-04-26T09:35:42.855Z,2.35
2023-04-26T09:40:49.706Z,1.95
2023-04-26T09:45:56.768Z,2.20
2023-04-26T09:51:04.308Z,2.40
2023-04-26T09:56:19.695Z,1.95
2023-04-26T10:01:21.351Z,2.00
2023-04-26T10:06:23.491Z,2.10
2023-04-26T10:11:26.707Z,1.90
2023-04-26T10:16:28.840Z,1.65
2023-04-26T10:21:32.609Z,2.10
2023-04-26T10:26:48.783Z,2.17
2023-04-26T10:32:02.400Z,2.17
2023-04-26T10:37:08.598Z,2.00
2023-04-26T10:42:24.690Z,1.95
2023-04-26T10:47:29.006Z,2.20
2023-04-26T10:52:30.869Z,2.30
2023-04-26T10:57:49.314Z,2.33
2023-04-26T11:03:05.082Z,1.80
2023-04-26T11:08:20.798Z,2.00
2023-04-26T11:13:22.434Z,2.00
2023-04-26T11:18:24.142Z,2.40
2023-04-26T11:23:28.160Z,2.20
2023-04-26T11:28:34.531Z,2.13
2023-04-26T11:33:36.315Z,2.10
2023-04-26T11:38:38.079Z,2.33
2023-04-26T11:43:40.400Z,2.00
2023-04-26T11:48:42.372Z,2.00
2023-04-26T11:53:44.512Z,1.92
2023-04-26T11:58:51.668Z,2.13
2023-04-26T12:03:55.798Z,2.00
2023-04-26T12:08:57.520Z,2.13
2023-04-26T12:13:59.751Z,2.70
2023-04-26T12:19:05.657Z,2.13
2023-04-26T12:24:07.584Z,2.20
2023-04-26T12:29:09.425Z,2.10
2023-04-26T12:34:11.160Z,2.38
2023-04-26T12:39:14.430Z,2.55
2023-04-26T12:44:16.257Z,2.08
2023-04-26T12:49:17.838Z,2.45
2023-04-26T12:54:19.497Z,2.55
2023-04-26T12:59:21.080Z,2.83
2023-04-26T13:04:22.819Z,2.33
2023-04-26T13:09:24.545Z,2.17
2023-04-26T13:14:26.209Z,2.63
2023-04-26T13:19:27.758Z,2.45
2023-04-26T13:24:29.354Z,2.22
2023-04-26T13:29:33.430Z,3.38
2023-04-26T13:34:35.776Z,2.70
2023-04-26T13:39:37.358Z,2.80
2023-04-26T13:44:39.544Z,2.88
2023-04-26T13:49:41.817Z,2.42
2023-04-26T13:54:43.520Z,2.25
2023-04-26T13:59:45.625Z,2.30
2023-04-26T14:04:47.525Z,2.20
2023-04-26T14:09:50.293Z,2.38
2023-04-26T14:14:51.910Z,2.08
2023-04-26T14:19:54.817Z,1.88
2023-04-26T14:24:56.697Z,2.35
2023-04-26T14:29:58.259Z,2.22
2023-04-26T14:34:59.836Z,2.33
2023-04-26T14:40:01.414Z,2.20
2023-04-26T14:45:03.443Z,2.17
2023-04-26T14:50:07.713Z,2.80
2023-04-26T14:55:09.475Z,2.80
2023-04-26T15:00:15.048Z,2.70
2023-04-26T15:05:16.898Z,2.47
2023-04-26T15:10:18.623Z,2.50
2023-04-26T15:15:20.402Z,2.58
2023-04-26T15:20:22.333Z,2.75
2023-04-26T15:25:23.906Z,2.38
2023-04-26T15:30:25.711Z,2.50
2023-04-26T15:35:27.337Z,2.38
2023-04-26T15:40:28.909Z,2.17
2023-04-26T15:45:30.497Z,2.70
2023-04-26T15:50:32.111Z,2.30
2023-04-26T15:55:33.878Z,2.17
2023-04-26T16:00:36.421Z,2.08
2023-04-26T16:05:37.968Z,2.50
2023-04-26T16:10:39.524Z,1.92
2023-04-26T16:15:41.289Z,2.03
2023-04-26T16:20:42.927Z,2.70
2023-04-26T16:25:44.649Z,2.35
2023-04-26T16:30:46.419Z,2.35
2023-04-26T16:35:57.788Z,2.15
2023-04-26T16:41:01.639Z,2.30
2023-04-26T16:46:07.563Z,2.60
2023-04-26T16:51:09.415Z,2.10
2023-04-26T16:56:11.065Z,2.38
2023-04-26T17:01:12.856Z,2.03
2023-04-26T17:06:14.438Z,2.20
2023-04-26T17:11:16.577Z,2.30
2023-04-26T17:16:18.221Z,2.25
2023-04-26T17:21:19.878Z,2.00
2023-04-26T17:26:21.911Z,2.20
2023-04-26T17:31:23.498Z,2.35
2023-04-26T17:36:25.102Z,2.30
2023-04-26T17:41:26.748Z,2.42
2023-04-26T17:46:28.463Z,2.40
2023-04-26T17:51:30.138Z,2.20
2023-04-26T17:56:31.751Z,2.03
2023-04-26T18:01:36.393Z,2.35
2023-04-26T18:06:38.159Z,2.67
2023-04-26T18:11:40.038Z,2.40
2023-04-26T18:16:42.213Z,2.13
2023-04-26T18:21:43.833Z,2.22
2023-04-26T18:26:45.477Z,2.47
2023-04-26T18:31:47.312Z,2.60
2023-04-26T18:36:48.941Z,3.50
2023-04-26T18:41:52.091Z,2.83
2023-04-26T18:46:55.825Z,2.80
2023-04-26T18:51:57.558Z,2.63
2023-04-26T18:57:01.096Z,2.50
2023-04-26T19:02:04.938Z,2.83
2023-04-26T19:07:06.824Z,2.33
2023-04-26T19:12:08.950Z,2.70
2023-04-26T19:17:11.318Z,3.03
2023-04-26T19:22:13.152Z,4.15
2023-04-26T19:27:14.777Z,3.28
2023-04-26T19:32:18.880Z,2.70
2023-04-26T19:37:20.677Z,2.65
2023-04-26T19:42:22.258Z,3.03
2023-04-26T19:47:23.897Z,2.58
2023-04-26T19:52:25.613Z,3.03
2023-04-26T19:57:27.165Z,2.50
2023-04-26T20:02:28.891Z,3.03
2023-04-26T20:07:30.644Z,2.72
2023-04-26T20:12:33.208Z,3.47
2023-04-26T20:17:34.780Z,3.05
2023-04-26T20:22:36.805Z,3.45
2023-04-26T20:27:38.595Z,3.47
2023-04-26T20:32:40.564Z,3.17
2023-04-26T20:37:42.222Z,3.53
2023-04-26T20:42:43.882Z,3.90
2023-04-26T20:47:45.764Z,3.60
2023-04-26T20:52:47.432Z,3.63
2023-04-26T20:57:49.340Z,3.40
2023-04-26T21:02:51.011Z,3.50
2023-04-26T21:07:52.698Z,3.50
2023-04-26T21:12:54.347Z,3.60
2023-04-26T21:17:56.044Z,4.28
2023-04-26T21:22:57.719Z,4.43
2023-04-26T21:27:59.307Z,4.10
2023-04-26T21:33:00.966Z,3.78
2023-04-26T21:38:02.624Z,3.88
2023-04-26T21:43:05.294Z,3.83
2023-04-26T21:48:07.856Z,3.80
2023-04-26T21:53:09.494Z,3.53
2023-04-26T21:58:11.223Z,4.07
2023-04-26T22:03:13.555Z,3.65
2023-04-26T22:08:15.455Z,3.97
2023-04-26T22:13:17.077Z,3.90
2023-04-26T22:18:18.901Z,3.78
2023-04-26T22:23:20.842Z,3.78
2023-04-26T22:28:22.512Z,4.10
2023-04-26T22:33:24.101Z,3.65
2023-04-26T22:38:25.800Z,3.85
2023-04-26T22:43:27.376Z,4.00
2023-04-26T22:48:29.032Z,4.20
2023-04-26T22:53:30.664Z,3.67
2023-04-26T22:58:32.312Z,3.67
2023-04-26T23:03:37.085Z,3.72
2023-04-26T23:08:38.743Z,3.70
2023-04-26T23:13:40.289Z,3.60
2023-04-26T23:18:42.481Z,3.78
2023-04-26T23:23:44.100Z,3.80
2023-04-26T23:28:45.778Z,4.03
2023-04-26T23:33:47.332Z,3.57
2023-04-26T23:38:48.879Z,3.72
2023-04-26T23:43:50.437Z,3.30
2023-04-26T23:48:52.020Z,3.67
2023-04-26T23:53:53.662Z,3.70
2023-04-26T23:58:55.203Z,3.58
